createdAt,value
2022-11-07T00:00:27.673Z,8.80
2022-11-07T00:02:54.477Z,8.70
2022-11-07T00:05:22.165Z,8.70
2022-11-07T00:07:48.968Z,8.70
2022-11-07T00:10:15.743Z,8.70
2022-11-07T00:12:42.404Z,8.90
2022-11-07T00:15:09.453Z,9.00
2022-11-07T00:17:36.158Z,9.00
2022-11-07T00:20:02.872Z,9.00
2022-11-07T00:22:29.580Z,9.00
2022-11-07T00:24:56.271Z,9.00
2022-11-07T00:27:23.009Z,9.00
2022-11-07T00:29:49.740Z,9.00
2022-11-07T00:32:16.454Z,8.90
2022-11-07T00:34:43.163Z,9.00
2022-11-07T00:37:09.947Z,9.10
2022-11-07T00:39:36.734Z,9.10
2022-11-07T00:42:03.727Z,9.00
2022-11-07T00:44:30.442Z,9.00
2022-11-07T00:46:57.210Z,9.00
2022-11-07T00:49:23.976Z,9.00
2022-11-07T00:51:50.696Z,8.90
2022-11-07T00:54:17.484Z,8.90
2022-11-07T00:56:44.249Z,9.00
2022-11-07T00:59:11.029Z,9.00
2022-11-07T01:01:37.865Z,9.10
2022-11-07T01:04:23.524Z,9.10
2022-11-07T01:06:50.279Z,9.00
2022-11-07T01:09:21.773Z,9.00
2022-11-07T01:11:49.668Z,9.10
2022-11-07T01:14:18.917Z,9.10
2022-11-07T01:16:45.618Z,9.00
2022-11-07T01:19:12.450Z,8.90
2022-11-07T01:21:41.154Z,8.80
2022-11-07T01:24:09.625Z,8.80
2022-11-07T01:26:37.395Z,8.70
2022-11-07T01:29:04.580Z,8.70
2022-11-07T01:31:31.299Z,8.70
2022-11-07T01:34:01.439Z,8.70
2022-11-07T01:36:28.526Z,8.60
2022-11-07T01:38:55.315Z,8.60
2022-11-07T01:41:26.083Z,8.50
2022-11-07T01:44:04.813Z,8.60
2022-11-07T01:46:33.225Z,8.70
2022-11-07T01:49:20.592Z,8.70
2022-11-07T01:52:08.433Z,8.60
2022-11-07T01:54:59.157Z,8.60
2022-11-07T01:57:39.254Z,8.70
2022-11-07T02:00:10.055Z,8.70
2022-11-07T02:02:37.610Z,8.70
2022-11-07T02:05:06.972Z,8.80
2022-11-07T02:07:33.968Z,8.80
2022-11-07T02:10:02.377Z,8.90
2022-11-07T02:12:29.382Z,8.90
2022-11-07T02:14:56.760Z,8.80
2022-11-07T02:17:23.696Z,9.00
2022-11-07T02:19:52.858Z,9.00
2022-11-07T02:22:58.296Z,9.10
2022-11-07T02:25:25.378Z,9.20
2022-11-07T02:27:57.211Z,9.30
2022-11-07T02:30:27.506Z,9.30
2022-11-07T02:32:54.291Z,9.40
2022-11-07T02:35:43.200Z,9.40
2022-11-07T02:38:30.967Z,9.30
2022-11-07T02:41:04.253Z,9.40
2022-11-07T02:43:33.039Z,9.30
2022-11-07T02:46:03.026Z,9.30
2022-11-07T02:48:31.618Z,9.30
2022-11-07T02:50:58.801Z,9.30
2022-11-07T02:53:25.517Z,9.30
2022-11-07T02:55:52.289Z,9.40
2022-11-07T02:58:19.011Z,9.40
2022-11-07T03:01:42.199Z,9.50
2022-11-07T03:04:09.142Z,9.60
2022-11-07T03:06:35.974Z,9.60
2022-11-07T03:09:02.679Z,9.70
2022-11-07T03:11:29.422Z,9.60
2022-11-07T03:13:56.777Z,9.60
2022-11-07T03:16:23.466Z,9.60
2022-11-07T03:18:50.141Z,9.70
2022-11-07T03:21:16.954Z,9.70
2022-11-07T03:23:43.635Z,9.70
2022-11-07T03:26:10.338Z,9.80
2022-11-07T03:28:37.053Z,9.80
2022-11-07T03:31:04.968Z,9.90
2022-11-07T03:33:32.013Z,9.90
2022-11-07T03:35:58.715Z,9.90
2022-11-07T03:38:25.607Z,9.90
2022-11-07T03:40:52.384Z,10.00
2022-11-07T03:43:19.096Z,9.90
2022-11-07T03:45:45.767Z,9.90
2022-11-07T03:48:12.476Z,9.90
2022-11-07T03:50:39.167Z,9.90
2022-11-07T03:53:05.825Z,9.90
2022-11-07T03:55:32.476Z,9.90
2022-11-07T03:57:59.195Z,9.90
2022-11-07T04:00:25.901Z,10.00
2022-11-07T04:02:52.788Z,10.00
2022-11-07T04:05:19.584Z,10.00
2022-11-07T04:07:46.291Z,9.90
2022-11-07T04:10:13.106Z,10.00
2022-11-07T04:12:58.497Z,10.10
2022-11-07T04:15:44.005Z,10.10
2022-11-07T04:18:10.712Z,10.10
2022-11-07T04:20:37.404Z,10.10
2022-11-07T04:23:04.109Z,10.10
2022-11-07T04:25:49.366Z,10.10
2022-11-07T04:28:17.792Z,10.10
2022-11-07T04:30:44.543Z,10.10
2022-11-07T04:33:11.323Z,10.10
2022-11-07T04:35:38.117Z,10.10
2022-11-07T04:38:04.798Z,10.10
2022-11-07T04:40:31.480Z,10.20
2022-11-07T04:42:58.192Z,10.20
2022-11-07T04:45:25.172Z,10.20
2022-11-07T04:47:52.080Z,10.20
2022-11-07T04:50:20.266Z,10.20
2022-11-07T04:52:47.591Z,10.30
2022-11-07T04:55:26.455Z,10.20
2022-11-07T04:57:53.551Z,10.20
2022-11-07T05:00:20.819Z,10.20
2022-11-07T05:02:48.507Z,10.20
2022-11-07T05:05:16.298Z,10.20
2022-11-07T05:07:43.899Z,10.20
2022-11-07T05:10:23.430Z,10.20
2022-11-07T05:12:50.888Z,10.20
2022-11-07T05:15:17.815Z,10.30
2022-11-07T05:17:44.579Z,10.30
2022-11-07T05:20:31.567Z,10.30
2022-11-07T05:23:18.805Z,10.30
2022-11-07T05:25:54.172Z,10.30
2022-11-07T05:28:31.187Z,10.30
2022-11-07T05:31:03.070Z,10.20
2022-11-07T05:33:29.815Z,10.20
2022-11-07T05:35:56.801Z,10.20
2022-11-07T05:38:23.519Z,10.20
2022-11-07T05:40:50.215Z,10.10
2022-11-07T05:43:17.257Z,10.10
2022-11-07T05:45:44.227Z,10.00
2022-11-07T05:48:13.295Z,10.10
2022-11-07T05:50:40.593Z,10.00
2022-11-07T05:53:08.083Z,10.10
2022-11-07T05:55:34.869Z,10.10
2022-11-07T05:58:07.231Z,10.10
2022-11-07T06:00:33.927Z,10.10
2022-11-07T06:03:00.941Z,10.10
2022-11-07T06:05:28.670Z,10.10
2022-11-07T06:07:55.397Z,10.00
2022-11-07T06:10:23.649Z,10.00
2022-11-07T06:13:01.223Z,10.00
2022-11-07T06:15:29.680Z,10.00
2022-11-07T06:17:58.962Z,10.00
2022-11-07T06:20:25.740Z,9.90
2022-11-07T06:22:52.443Z,10.00
2022-11-07T06:25:19.104Z,9.90
2022-11-07T06:27:45.928Z,9.80
2022-11-07T06:30:12.820Z,9.80
2022-11-07T06:32:44.145Z,9.80
2022-11-07T06:35:11.907Z,9.80
2022-11-07T06:37:41.689Z,9.90
2022-11-07T06:40:09.306Z,10.00
2022-11-07T06:42:36.075Z,10.00
2022-11-07T06:45:03.021Z,10.00
2022-11-07T06:47:29.800Z,10.00
2022-11-07T06:49:56.478Z,9.90
2022-11-07T06:52:23.219Z,9.80
2022-11-07T06:54:49.917Z,9.80
2022-11-07T06:57:16.626Z,9.70
2022-11-07T06:59:47.676Z,9.70
2022-11-07T07:02:30.829Z,9.70
2022-11-07T07:05:05.302Z,9.60
2022-11-07T07:07:32.146Z,9.70
2022-11-07T07:09:58.841Z,9.70
2022-11-07T07:12:26.524Z,9.80
2022-11-07T07:14:53.206Z,9.80
2022-11-07T07:17:20.059Z,9.80
2022-11-07T07:19:46.734Z,9.80
2022-11-07T07:22:13.977Z,9.90
2022-11-07T07:24:44.803Z,9.90
2022-11-07T07:27:11.533Z,10.00
2022-11-07T07:29:38.177Z,10.00
2022-11-07T07:32:04.968Z,10.00
2022-11-07T07:34:31.695Z,10.00
2022-11-07T07:36:58.438Z,10.00
2022-11-07T07:39:27.120Z,10.20
2022-11-07T07:41:53.827Z,10.30
2022-11-07T07:44:22.977Z,10.40
2022-11-07T07:46:49.679Z,10.50
2022-11-07T07:49:16.415Z,10.60
2022-11-07T07:51:43.113Z,10.60
2022-11-07T07:54:11.813Z,10.70
2022-11-07T07:56:38.575Z,10.80
2022-11-07T07:59:05.322Z,10.90
2022-11-07T08:01:32.138Z,11.00
2022-11-07T08:04:01.790Z,11.10
2022-11-07T08:06:29.465Z,11.20
2022-11-07T08:08:56.215Z,11.30
2022-11-07T08:11:22.902Z,11.30
2022-11-07T08:13:49.604Z,11.30
2022-11-07T08:16:16.377Z,11.30
2022-11-07T08:18:43.061Z,11.30
2022-11-07T08:21:09.917Z,11.30
2022-11-07T08:23:36.984Z,11.30
2022-11-07T08:26:04.983Z,11.20
2022-11-07T08:28:35.949Z,11.20
2022-11-07T08:31:06.953Z,11.20
2022-11-07T08:33:34.321Z,11.20
2022-11-07T08:36:02.784Z,11.20
2022-11-07T08:38:31.111Z,11.30
2022-11-07T08:40:58.063Z,11.30
2022-11-07T08:43:25.604Z,11.30
2022-11-07T08:45:53.627Z,11.30
2022-11-07T08:48:21.016Z,11.30
2022-11-07T08:50:52.413Z,11.30
2022-11-07T08:53:19.365Z,11.20
2022-11-07T08:55:46.540Z,11.30
2022-11-07T08:58:15.039Z,11.30
2022-11-07T09:00:42.038Z,11.30
2022-11-07T09:03:31.305Z,11.30
2022-11-07T09:05:57.747Z,11.40
2022-11-07T09:08:24.421Z,11.50
2022-11-07T09:10:51.235Z,11.70
2022-11-07T09:13:19.289Z,11.70
2022-11-07T09:15:50.889Z,11.80
2022-11-07T09:18:19.376Z,11.80
2022-11-07T09:20:46.098Z,11.80
2022-11-07T09:23:12.881Z,11.90
2022-11-07T09:25:39.690Z,12.00
2022-11-07T09:28:06.604Z,12.00
2022-11-07T09:30:33.312Z,12.00
2022-11-07T09:33:00.438Z,12.00
2022-11-07T09:35:27.459Z,12.00
2022-11-07T09:37:54.545Z,12.10
2022-11-07T09:40:33.022Z,12.10
2022-11-07T09:43:15.655Z,12.10
2022-11-07T09:46:12.131Z,12.10
2022-11-07T09:48:50.297Z,12.10
2022-11-07T09:51:56.114Z,12.10
2022-11-07T09:54:27.570Z,12.10
2022-11-07T09:56:57.988Z,12.20
2022-11-07T09:59:53.703Z,12.10
2022-11-07T10:02:24.618Z,12.20
2022-11-07T10:04:59.341Z,12.20
2022-11-07T10:07:47.634Z,12.30
2022-11-07T10:10:46.690Z,12.30
2022-11-07T10:13:39.133Z,12.40
2022-11-07T10:16:12.484Z,12.30
2022-11-07T10:18:42.146Z,12.30
2022-11-07T10:21:37.252Z,12.30
2022-11-07T10:24:41.853Z,12.20
2022-11-07T10:27:11.366Z,12.20
2022-11-07T10:29:53.743Z,12.30
2022-11-07T10:32:35.586Z,12.40
2022-11-07T10:35:28.275Z,12.60
2022-11-07T10:37:57.376Z,12.60
2022-11-07T10:40:28.515Z,12.80
2022-11-07T10:42:56.486Z,13.10
2022-11-07T10:45:28.036Z,13.40
2022-11-07T10:48:00.506Z,13.40
2022-11-07T10:50:27.313Z,13.50
2022-11-07T10:52:59.501Z,13.50
2022-11-07T10:55:27.985Z,13.70
2022-11-07T10:57:59.686Z,13.80
2022-11-07T11:00:27.984Z,13.70
2022-11-07T11:02:56.294Z,13.70
2022-11-07T11:05:26.031Z,13.60
2022-11-07T11:07:57.616Z,13.50
2022-11-07T11:10:27.236Z,13.50
2022-11-07T11:12:54.051Z,13.60
2022-11-07T11:15:23.923Z,13.70
2022-11-07T11:18:03.774Z,13.90
2022-11-07T11:20:30.973Z,14.10
2022-11-07T11:22:59.669Z,14.20
2022-11-07T11:25:26.389Z,14.20
2022-11-07T11:28:01.473Z,14.20
2022-11-07T11:30:30.782Z,14.30
2022-11-07T11:33:19.193Z,14.40
2022-11-07T11:35:58.723Z,14.60
2022-11-07T11:38:29.712Z,14.60
2022-11-07T11:41:10.807Z,14.60
2022-11-07T11:44:06.715Z,14.70
2022-11-07T11:46:38.407Z,14.80
2022-11-07T11:49:32.034Z,15.00
2022-11-07T11:52:28.299Z,15.10
2022-11-07T11:54:56.879Z,14.90
2022-11-07T11:57:25.991Z,14.60
2022-11-07T12:00:15.568Z,14.50
2022-11-07T12:03:19.359Z,14.20
2022-11-07T12:06:10.642Z,13.90
2022-11-07T12:08:52.041Z,13.70
2022-11-07T12:11:32.691Z,13.70
2022-11-07T12:14:31.102Z,13.80
2022-11-07T12:17:08.727Z,13.90
2022-11-07T12:20:05.067Z,14.00
2022-11-07T12:22:51.466Z,14.00
2022-11-07T12:25:28.928Z,14.00
2022-11-07T12:28:08.806Z,13.90
2022-11-07T12:30:47.133Z,14.00
2022-11-07T12:33:29.094Z,14.10
2022-11-07T12:36:10.948Z,14.10
2022-11-07T12:38:49.347Z,14.20
2022-11-07T12:41:40.462Z,14.20
2022-11-07T12:44:25.209Z,14.00
2022-11-07T12:47:04.871Z,14.00
2022-11-07T12:49:51.808Z,14.00
2022-11-07T12:52:56.390Z,14.00
2022-11-07T12:55:31.536Z,13.90
2022-11-07T12:58:00.096Z,13.90
2022-11-07T13:00:30.241Z,13.80
2022-11-07T13:03:24.298Z,13.80
2022-11-07T13:06:15.164Z,13.80
2022-11-07T13:09:00.522Z,13.80
2022-11-07T13:12:06.226Z,13.80
2022-11-07T13:14:41.411Z,13.70
2022-11-07T13:17:12.351Z,13.80
2022-11-07T13:19:44.229Z,13.80
2022-11-07T13:22:16.660Z,13.80
2022-11-07T13:25:08.394Z,13.80
2022-11-07T13:27:39.850Z,13.70
2022-11-07T13:30:13.590Z,13.50
2022-11-07T13:32:51.482Z,13.50
2022-11-07T13:35:30.066Z,13.60
2022-11-07T13:38:16.387Z,13.70
2022-11-07T13:40:58.415Z,13.80
2022-11-07T13:43:55.721Z,14.00
2022-11-07T13:46:46.527Z,14.10
2022-11-07T13:49:21.231Z,14.10
2022-11-07T13:51:50.403Z,14.20
2022-11-07T13:54:33.923Z,14.10
2022-11-07T13:57:27.914Z,14.00
2022-11-07T14:00:05.506Z,14.10
2022-11-07T14:02:39.031Z,14.00
2022-11-07T14:05:18.979Z,13.90
2022-11-07T14:07:55.851Z,13.90
2022-11-07T14:10:27.252Z,13.80
2022-11-07T14:13:04.102Z,13.70
2022-11-07T14:15:30.932Z,13.60
2022-11-07T14:17:57.706Z,13.60
2022-11-07T14:20:24.713Z,13.60
2022-11-07T14:22:53.286Z,13.60
2022-11-07T14:25:33.190Z,13.60
2022-11-07T14:28:00.868Z,13.60
2022-11-07T14:30:29.634Z,13.50
2022-11-07T14:33:02.042Z,13.40
2022-11-07T14:35:32.088Z,13.40
2022-11-07T14:38:10.738Z,13.40
2022-11-07T14:40:38.063Z,13.40
2022-11-07T14:43:11.476Z,13.30
2022-11-07T14:46:10.718Z,13.30
2022-11-07T14:48:27.297Z,13.20
2022-11-07T14:50:54.115Z,13.10
2022-11-07T14:53:25.242Z,13.10
2022-11-07T14:55:58.411Z,13.00
2022-11-07T14:58:27.970Z,12.80
2022-11-07T15:01:06.399Z,12.70
2022-11-07T15:03:35.980Z,12.50
2022-11-07T15:06:02.788Z,12.60
2022-11-07T15:08:33.033Z,12.50
2022-11-07T15:11:07.609Z,12.50
2022-11-07T15:13:35.269Z,12.60
2022-11-07T15:16:07.849Z,12.50
2022-11-07T15:18:39.686Z,12.30
2022-11-07T15:21:06.963Z,12.10
2022-11-07T15:23:35.662Z,12.00
2022-11-07T15:26:12.527Z,11.90
2022-11-07T15:28:42.031Z,11.90
2022-11-07T15:31:29.874Z,11.90
2022-11-07T15:33:58.938Z,11.70
2022-11-07T15:36:26.049Z,11.70
2022-11-07T15:38:54.041Z,11.50
2022-11-07T15:41:20.942Z,11.30
2022-11-07T15:43:47.681Z,11.30
2022-11-07T15:46:23.766Z,11.20
2022-11-07T15:48:50.510Z,11.10
2022-11-07T15:51:17.424Z,11.10
2022-11-07T15:53:44.200Z,11.00
2022-11-07T15:56:15.646Z,10.90
2022-11-07T15:58:42.927Z,10.90
2022-11-07T16:01:10.052Z,10.80
2022-11-07T16:03:36.915Z,10.70
2022-11-07T16:06:14.977Z,10.70
2022-11-07T16:08:41.780Z,10.70
2022-11-07T16:11:11.533Z,10.70
2022-11-07T16:13:39.064Z,10.70
2022-11-07T16:16:07.209Z,10.60
2022-11-07T16:18:39.570Z,10.70
2022-11-07T16:21:06.600Z,10.60
2022-11-07T16:23:33.345Z,10.50
2022-11-07T16:26:00.356Z,10.60
2022-11-07T16:28:31.583Z,10.60
2022-11-07T16:30:58.923Z,10.60
2022-11-07T16:33:26.773Z,10.60
2022-11-07T16:35:56.013Z,10.50
2022-11-07T16:38:24.387Z,10.60
2022-11-07T16:40:51.547Z,10.60
2022-11-07T16:43:18.575Z,10.70
2022-11-07T16:45:51.581Z,10.60
2022-11-07T16:48:26.480Z,10.60
2022-11-07T16:50:54.723Z,10.50
2022-11-07T16:53:22.515Z,10.40
2022-11-07T16:55:53.945Z,10.30
2022-11-07T16:58:25.696Z,10.40
2022-11-07T17:00:53.799Z,10.50
2022-11-07T17:03:20.823Z,10.30
2022-11-07T17:05:48.388Z,10.20
2022-11-07T17:08:21.193Z,10.30
2022-11-07T17:10:48.192Z,10.30
2022-11-07T17:13:15.268Z,10.30
2022-11-07T17:15:42.581Z,10.10
2022-11-07T17:18:21.082Z,10.10
2022-11-07T17:20:51.693Z,10.20
2022-11-07T17:23:28.506Z,10.10
2022-11-07T17:25:59.617Z,10.00
2022-11-07T17:28:26.458Z,10.00
2022-11-07T17:30:53.476Z,10.00
2022-11-07T17:33:20.250Z,10.10
2022-11-07T17:35:47.557Z,10.10
2022-11-07T17:38:17.662Z,10.00
2022-11-07T17:40:44.797Z,10.00
2022-11-07T17:43:11.800Z,9.80
2022-11-07T17:45:39.209Z,9.70
2022-11-07T17:48:06.260Z,9.70
2022-11-07T17:50:33.054Z,9.60
2022-11-07T17:53:00.194Z,9.40
2022-11-07T17:55:27.225Z,9.40
2022-11-07T17:57:54.230Z,9.30
2022-11-07T18:00:23.681Z,9.20
2022-11-07T18:02:52.392Z,9.20
2022-11-07T18:05:22.367Z,9.10
2022-11-07T18:07:49.356Z,9.00
2022-11-07T18:10:16.774Z,8.90
2022-11-07T18:12:43.921Z,8.90
2022-11-07T18:15:14.008Z,8.90
2022-11-07T18:17:41.561Z,8.90
2022-11-07T18:20:09.636Z,8.90
2022-11-07T18:22:37.264Z,8.80
2022-11-07T18:25:07.802Z,8.80
2022-11-07T18:27:35.222Z,8.70
2022-11-07T18:30:03.072Z,8.60
2022-11-07T18:32:35.811Z,8.60
2022-11-07T18:35:04.735Z,8.60
2022-11-07T18:37:31.994Z,8.50
2022-11-07T18:39:58.694Z,8.40
2022-11-07T18:42:25.556Z,8.40
2022-11-07T18:44:52.234Z,8.20
2022-11-07T18:47:19.456Z,8.30
2022-11-07T18:49:46.231Z,8.20
2022-11-07T18:52:13.386Z,8.10
2022-11-07T18:54:40.072Z,8.10
2022-11-07T18:57:06.810Z,8.20
2022-11-07T18:59:34.237Z,8.20
2022-11-07T19:02:01.664Z,8.10
2022-11-07T19:04:28.630Z,8.10
2022-11-07T19:06:58.472Z,8.10
2022-11-07T19:09:28.502Z,8.00
2022-11-07T19:11:56.937Z,8.00
2022-11-07T19:14:24.092Z,7.90
2022-11-07T19:16:50.873Z,7.90
2022-11-07T19:19:17.737Z,7.90
2022-11-07T19:21:44.592Z,7.80
2022-11-07T19:24:12.683Z,7.70
2022-11-07T19:26:39.797Z,7.80
2022-11-07T19:29:09.211Z,7.90
2022-11-07T19:31:37.150Z,7.90
2022-11-07T19:34:04.705Z,8.00
2022-11-07T19:36:33.288Z,8.00
2022-11-07T19:39:00.186Z,7.90
2022-11-07T19:41:27.061Z,7.80
2022-11-07T19:43:53.795Z,7.70
2022-11-07T19:46:22.411Z,7.80
2022-11-07T19:48:50.544Z,7.80
2022-11-07T19:51:22.066Z,7.80
2022-11-07T19:53:57.547Z,7.90
2022-11-07T19:56:26.650Z,7.80
2022-11-07T19:58:54.347Z,7.80
2022-11-07T20:01:25.755Z,7.70
2022-11-07T20:03:53.637Z,7.70
2022-11-07T20:06:24.846Z,7.50
2022-11-07T20:08:52.248Z,7.70
2022-11-07T20:11:21.756Z,7.70
2022-11-07T20:13:48.658Z,7.70
2022-11-07T20:16:15.690Z,7.70
2022-11-07T20:18:42.848Z,7.70
2022-11-07T20:21:13.971Z,7.60
2022-11-07T20:23:45.388Z,7.60
2022-11-07T20:26:18.095Z,7.50
2022-11-07T20:28:46.043Z,7.60
2022-11-07T20:31:14.719Z,7.60
2022-11-07T20:33:41.697Z,7.60
2022-11-07T20:36:12.897Z,7.60
2022-11-07T20:38:40.878Z,7.60
2022-11-07T20:41:08.343Z,7.60
2022-11-07T20:43:35.279Z,7.50
2022-11-07T20:46:05.849Z,7.50
2022-11-07T20:48:33.302Z,7.40
2022-11-07T20:51:20.039Z,7.40
2022-11-07T20:53:50.450Z,7.40
2022-11-07T20:56:19.288Z,7.40
2022-11-07T20:58:46.532Z,7.20
2022-11-07T21:01:15.821Z,7.10
2022-11-07T21:03:44.187Z,7.00
2022-11-07T21:06:13.699Z,7.00
2022-11-07T21:08:42.550Z,6.90
2022-11-07T21:11:10.429Z,6.90
2022-11-07T21:13:38.110Z,6.90
2022-11-07T21:16:06.539Z,6.90
2022-11-07T21:18:33.258Z,6.80
2022-11-07T21:21:11.739Z,6.80
2022-11-07T21:23:39.009Z,6.80
2022-11-07T21:26:12.790Z,6.70
2022-11-07T21:28:40.298Z,6.70
2022-11-07T21:31:11.135Z,6.70
2022-11-07T21:33:38.886Z,6.50
2022-11-07T21:36:14.643Z,6.50
2022-11-07T21:38:41.666Z,6.60
2022-11-07T21:41:10.193Z,6.50
2022-11-07T21:43:37.676Z,6.40
2022-11-07T21:46:16.587Z,6.30
2022-11-07T21:48:43.731Z,6.40
2022-11-07T21:51:15.014Z,6.40
2022-11-07T21:53:42.211Z,6.40
2022-11-07T21:56:14.692Z,6.30
2022-11-07T21:58:41.718Z,6.20
2022-11-07T22:01:08.644Z,6.20
2022-11-07T22:04:04.724Z,6.20
2022-11-07T22:06:22.893Z,6.30
2022-11-07T22:08:51.662Z,6.20
2022-11-07T22:11:18.829Z,6.20
2022-11-07T22:13:45.868Z,6.20
2022-11-07T22:16:15.569Z,6.20
2022-11-07T22:18:42.513Z,6.20
2022-11-07T22:21:12.866Z,6.20
2022-11-07T22:23:40.754Z,6.10
2022-11-07T22:26:14.868Z,6.00
2022-11-07T22:28:45.854Z,6.10
2022-11-07T22:31:18.143Z,6.10
2022-11-07T22:33:44.750Z,6.00
2022-11-07T22:36:12.325Z,5.90
2022-11-07T22:38:40.133Z,5.90
2022-11-07T22:41:13.841Z,5.90
2022-11-07T22:43:41.013Z,6.00
2022-11-07T22:46:13.572Z,5.90
2022-11-07T22:48:40.905Z,5.90
2022-11-07T22:51:16.510Z,5.90
2022-11-07T22:53:43.399Z,6.00
2022-11-07T22:56:17.970Z,5.90
2022-11-07T22:58:46.028Z,5.90
2022-11-07T23:01:21.829Z,5.90
2022-11-07T23:03:49.568Z,5.90
2022-11-07T23:06:18.355Z,5.80
2022-11-07T23:08:45.661Z,5.70
2022-11-07T23:11:44.794Z,5.70
2022-11-07T23:14:07.338Z,5.70
2022-11-07T23:16:34.902Z,5.70
2022-11-07T23:19:04.127Z,5.60
2022-11-07T23:21:31.435Z,5.70
2022-11-07T23:23:59.294Z,5.70
2022-11-07T23:26:33.381Z,5.70
2022-11-07T23:29:07.291Z,5.70
2022-11-07T23:31:37.130Z,5.80
2022-11-07T23:34:03.864Z,5.70
2022-11-07T23:36:30.570Z,5.70
2022-11-07T23:38:57.366Z,5.70
2022-11-07T23:41:24.068Z,5.70
2022-11-07T23:43:52.721Z,5.60
2022-11-07T23:46:38.291Z,5.60
2022-11-07T23:49:23.766Z,5.70
2022-11-07T23:51:50.481Z,5.80
2022-11-07T23:54:35.683Z,5.80
2022-11-07T23:57:02.426Z,5.70
2022-11-07T23:59:47.567Z,5.70
